Time;durP1;ratioP1;P1;durP2;ratioP2;P2;SDS_P1;SDS_P2;PMS_P1;PMS_P2;Temp;Humidity;BMP_temperature;BMP_pressure;BME280_temperature;BME280_humidity;BME280_pressure;Samples;Min_cycle;Max_cycle;Signal;HPM_P1;HPM_P2
2023/03/31 00:00:51;;;;;;;17.10;6.63;;;10.80;99.90;;;;;;5058679;28;20048;-76
2023/03/31 00:03:20;;;;;;;30.33;7.80;;;10.80;99.90;;;;;;5061945;28;20551;-76
2023/03/31 00:05:47;;;;;;;21.38;7.55;;;10.80;99.90;;;;;;5066628;28;20052;-75
2023/03/31 00:08:13;;;;;;;20.33;6.30;;;10.80;99.90;;;;;;5067949;28;20102;-76
2023/03/31 00:10:45;;;;;;;28.27;6.68;;;10.80;99.90;;;;;;5063507;28;20059;-76
2023/03/31 00:13:11;;;;;;;29.83;8.05;;;10.80;99.90;;;;;;5067462;28;20548;-76
2023/03/31 00:15:37;;;;;;;20.15;6.20;;;10.80;99.90;;;;;;5067901;28;20102;-75
2023/03/31 00:18:04;;;;;;;24.33;6.70;;;10.80;99.90;;;;;;5061694;28;20053;-76
2023/03/31 00:20:32;;;;;;;23.58;6.90;;;10.80;99.90;;;;;;5060876;28;20072;-76
2023/03/31 00:23:00;;;;;;;26.08;7.10;;;10.80;99.90;;;;;;5068007;28;20409;-76
2023/03/31 00:25:26;;;;;;;21.77;6.85;;;10.70;99.90;;;;;;5062842;28;20091;-76
2023/03/31 00:27:52;;;;;;;23.42;6.25;;;10.80;99.90;;;;;;5043473;28;20036;-75
2023/03/31 00:30:18;;;;;;;18.27;7.05;;;10.70;99.90;;;;;;5048807;28;20044;-76
2023/03/31 00:32:44;;;;;;;23.17;6.30;;;10.70;99.90;;;;;;5064826;28;20131;-75
2023/03/31 00:35:10;;;;;;;34.35;7.63;;;10.60;99.90;;;;;;5061316;28;20466;-76
2023/03/31 00:37:36;;;;;;;26.88;6.93;;;10.60;99.90;;;;;;5063296;28;20581;-76
2023/03/31 00:40:09;;;;;;;23.80;7.53;;;10.50;99.90;;;;;;5067503;28;20056;-76
2023/03/31 00:42:42;;;;;;;23.45;6.80;;;10.40;99.90;;;;;;5059811;28;20099;-76
2023/03/31 00:45:14;;;;;;;27.65;7.60;;;10.40;99.90;;;;;;5056620;28;20067;-75
2023/03/31 00:47:47;;;;;;;25.92;7.53;;;10.40;99.90;;;;;;5064910;28;20080;-75
2023/03/31 00:50:27;;;;;;;22.83;7.25;;;10.30;99.90;;;;;;5065626;28;20052;-76
2023/03/31 00:53:09;;;;;;;31.45;7.22;;;10.20;99.90;;;;;;5061167;28;20044;-75
2023/03/31 00:55:42;;;;;;;35.80;8.27;;;10.20;99.90;;;;;;5062460;28;20782;-75
2023/03/31 00:58:13;;;;;;;28.52;8.77;;;10.20;99.90;;;;;;5060290;28;20048;-76
2023/03/31 01:00:40;;;;;;;25.70;6.57;;;10.10;99.90;;;;;;5062502;28;20506;-76
2023/03/31 01:03:08;;;;;;;27.83;6.70;;;10.00;99.90;;;;;;5070925;28;20052;-76
2023/03/31 01:05:50;;;;;;;27.60;6.22;;;10.00;99.90;;;;;;5063318;28;20095;-76
2023/03/31 01:08:17;;;;;;;20.40;7.28;;;10.00;99.90;;;;;;5067567;28;20135;-75
2023/03/31 01:10:48;;;;;;;20.83;7.22;;;9.90;99.90;;;;;;5060204;28;20123;-76
2023/03/31 01:13:15;;;;;;;21.77;6.57;;;9.90;99.90;;;;;;5064064;28;20036;-76
2023/03/31 01:15:42;;;;;;;23.17;8.03;;;9.80;99.90;;;;;;5069353;28;20052;-76
2023/03/31 01:18:10;;;;;;;20.77;6.65;;;9.80;99.90;;;;;;5066782;28;20101;-76
2023/03/31 01:21:09;;;;;;;22.63;5.55;;;9.80;99.90;;;;;;5063514;28;20060;-76
2023/03/31 01:23:53;;;;;;;20.60;6.57;;;9.70;99.90;;;;;;5068115;28;20056;-76
2023/03/31 01:26:40;;;;;;;32.55;7.28;;;9.60;99.90;;;;;;5059239;28;20040;-76
2023/03/31 01:29:28;;;;;;;27.55;7.15;;;9.60;99.90;;;;;;5061082;28;20061;-76
2023/03/31 01:32:00;;;;;;;;;;;9.60;99.90;;;;;;5059764;28;20052;-76
2023/03/31 01:34:56;;;;;;;27.80;6.93;;;9.50;99.90;;;;;;5053074;28;19995;-76
2023/03/31 01:38:00;;;;;;;24.08;6.28;;;9.50;99.90;;;;;;5065615;28;20463;-75
2023/03/31 01:40:44;;;;;;;32.50;6.28;;;9.50;99.90;;;;;;5075218;28;20151;-76
2023/03/31 01:43:25;;;;;;;18.48;6.05;;;9.40;99.90;;;;;;5064120;28;20052;-76
2023/03/31 01:46:15;;;;;;;22.08;6.63;;;9.40;99.90;;;;;;5059380;28;20111;-75
2023/03/31 01:48:46;;;;;;;20.23;6.05;;;9.40;99.90;;;;;;5064464;28;20056;-75
2023/03/31 01:51:25;;;;;;;20.20;6.25;;;9.40;99.90;;;;;;5067573;28;20583;-75
2023/03/31 01:54:18;;;;;;;29.70;7.65;;;9.40;99.90;;;;;;5058947;28;20052;-75
2023/03/31 01:57:16;;;;;;;23.30;7.53;;;9.40;99.90;;;;;;5060508;28;20079;-75
2023/03/31 02:00:03;;;;;;;23.65;6.15;;;9.40;99.90;;;;;;5063396;28;20066;-75
2023/03/31 02:02:37;;;;;;;29.42;7.43;;;9.40;99.90;;;;;;5059859;28;20049;-75
2023/03/31 02:05:29;;;;;;;19.63;6.82;;;9.40;99.90;;;;;;5059581;28;20040;-75
2023/03/31 02:08:00;;;;;;;15.57;6.40;;;9.40;99.90;;;;;;5064596;28;20120;-75
2023/03/31 02:10:29;;;;;;;20.13;6.22;;;9.40;99.90;;;;;;5068467;28;20044;-76
2023/03/31 02:12:57;;;;;;;21.95;7.90;;;9.40;99.90;;;;;;5069878;28;20494;-75
2023/03/31 02:15:32;;;;;;;14.90;6.07;;;9.50;99.90;;;;;;5069335;28;20093;-75
2023/03/31 02:18:02;;;;;;;14.30;6.25;;;9.40;99.90;;;;;;5067510;28;20056;-75
2023/03/31 02:20:31;;;;;;;22.58;7.38;;;9.40;99.90;;;;;;5066146;28;20049;-75
2023/03/31 02:22:59;;;;;;;22.58;7.30;;;9.50;99.90;;;;;;5062094;28;20534;-75
2023/03/31 02:25:32;;;;;;;20.58;7.75;;;9.50;99.90;;;;;;5059728;28;20037;-75
2023/03/31 02:28:08;;;;;;;20.00;8.68;;;9.40;99.90;;;;;;5065136;28;20122;-75
2023/03/31 02:30:52;;;;;;;17.10;7.47;;;9.50;99.90;;;;;;5064725;28;20440;-76
2023/03/31 02:33:18;;;;;;;20.48;7.85;;;9.50;99.90;;;;;;5064570;28;20437;-75
2023/03/31 02:35:45;;;;;;;19.83;7.57;;;9.40;99.90;;;;;;5061575;28;20047;-75
2023/03/31 02:38:11;;;;;;;21.77;8.13;;;9.40;99.90;;;;;;5062708;28;20071;-75
2023/03/31 02:40:36;;;;;;;25.60;8.07;;;9.40;99.90;;;;;;5061475;28;20115;-76
2023/03/31 02:43:02;;;;;;;21.67;7.85;;;9.40;99.90;;;;;;5068068;28;20485;-75
2023/03/31 02:45:42;;;;;;;19.30;7.43;;;9.50;99.90;;;;;;5066014;28;20494;-76
2023/03/31 02:48:13;;;;;;;21.27;8.93;;;9.40;99.90;;;;;;5069076;28;20401;-75
2023/03/31 02:50:58;;;;;;;20.35;8.13;;;9.50;99.90;;;;;;5062162;28;20106;-75
2023/03/31 02:53:52;;;;;;;32.53;9.10;;;9.40;99.90;;;;;;5066943;28;20037;-75
2023/03/31 02:56:55;;;;;;;18.52;8.27;;;9.40;99.90;;;;;;5045521;28;20041;-75
2023/03/31 02:59:42;;;;;;;14.52;8.50;;;9.40;99.90;;;;;;5063872;28;20111;-75
2023/03/31 03:02:36;;;;;;;23.52;8.70;;;9.40;99.90;;;;;;5066056;28;20082;-75
2023/03/31 03:05:33;;;;;;;21.23;7.85;;;9.40;99.90;;;;;;5058423;28;20568;-75
2023/03/31 03:08:08;;;;;;;19.30;8.02;;;9.40;99.90;;;;;;5066658;28;20185;-75
2023/03/31 03:11:06;;;;;;;13.52;6.90;;;9.40;99.90;;;;;;5058604;28;20044;-75
2023/03/31 03:13:51;;;;;;;23.95;8.05;;;9.50;99.90;;;;;;5058847;28;20506;-75
2023/03/31 03:16:32;;;;;;;23.45;8.10;;;9.40;99.90;;;;;;5055623;28;20045;-76
2023/03/31 03:19:00;;;;;;;22.17;8.40;;;9.40;99.90;;;;;;5062057;28;20505;-75
2023/03/31 03:21:28;;;;;;;16.40;7.45;;;9.50;99.90;;;;;;5060443;28;20568;-75
2023/03/31 03:23:54;;;;;;;22.23;7.75;;;9.50;99.90;;;;;;5068249;28;20037;-75
2023/03/31 03:26:22;;;;;;;17.58;6.35;;;9.60;99.90;;;;;;5060078;28;20040;-75
2023/03/31 03:28:49;;;;;;;22.90;8.05;;;9.50;99.90;;;;;;5057489;28;20040;-75
2023/03/31 03:31:16;;;;;;;21.10;7.43;;;9.50;99.90;;;;;;5065276;28;20052;-75
2023/03/31 03:33:42;;;;;;;17.13;7.03;;;9.60;99.90;;;;;;5060271;28;20055;-75
2023/03/31 03:36:08;;;;;;;14.48;6.65;;;9.60;99.90;;;;;;5061492;28;20044;-75
2023/03/31 03:38:35;;;;;;;16.40;7.38;;;9.60;99.90;;;;;;5067109;28;20091;-75
2023/03/31 03:41:01;;;;;;;11.65;6.22;;;9.70;99.90;;;;;;5066509;28;20066;-75
2023/03/31 03:43:27;;;;;;;11.57;6.07;;;9.70;99.90;;;;;;5064154;28;20044;-74
2023/03/31 03:45:54;;;;;;;25.58;6.85;;;9.70;99.90;;;;;;5065545;28;20102;-75
2023/03/31 03:48:20;;;;;;;23.92;6.05;;;9.70;99.90;;;;;;5061585;28;20067;-75
2023/03/31 03:50:46;;;;;;;17.42;7.05;;;9.70;99.90;;;;;;5066228;28;20091;-75
2023/03/31 03:53:13;;;;;;;9.13;5.80;;;9.80;99.90;;;;;;5066778;28;20118;-75
2023/03/31 03:55:39;;;;;;;21.80;8.43;;;9.80;99.90;;;;;;5057439;28;20072;-75
2023/03/31 03:58:05;;;;;;;17.05;7.45;;;9.80;99.90;;;;;;5063663;28;20080;-75
2023/03/31 04:00:31;;;;;;;18.15;7.35;;;9.80;99.90;;;;;;5061277;28;20048;-75
2023/03/31 04:02:57;;;;;;;12.65;6.90;;;9.80;99.90;;;;;;5058312;28;20057;-74
2023/03/31 04:05:23;;;;;;;15.30;7.28;;;9.80;99.90;;;;;;5065677;28;20040;-75
2023/03/31 04:07:49;;;;;;;19.08;6.78;;;9.80;99.90;;;;;;5066803;28;20071;-74
2023/03/31 04:10:14;;;;;;;13.57;6.70;;;9.80;99.90;;;;;;5049330;28;20942;-75
2023/03/31 04:12:40;;;;;;;16.42;7.15;;;9.80;99.90;;;;;;5053560;28;20060;-75
2023/03/31 04:15:07;;;;;;;16.50;6.68;;;9.80;99.90;;;;;;5065437;28;20128;-74
2023/03/31 04:17:33;;;;;;;14.27;7.05;;;9.80;99.90;;;;;;5058105;28;20051;-74
2023/03/31 04:20:04;;;;;;;13.95;6.40;;;9.80;99.90;;;;;;5066016;28;20474;-75
2023/03/31 04:22:34;;;;;;;16.42;6.32;;;9.80;99.90;;;;;;5067226;28;20086;-75
2023/03/31 04:25:03;;;;;;;8.00;6.43;;;9.80;99.90;;;;;;5063471;28;20048;-75
2023/03/31 04:27:29;;;;;;;12.27;8.15;;;9.80;99.90;;;;;;5062392;28;20405;-75
2023/03/31 04:29:56;;;;;;;10.23;5.93;;;9.80;99.90;;;;;;5061970;28;20059;-75
2023/03/31 04:32:22;;;;;;;14.65;7.70;;;9.70;99.90;;;;;;5065329;28;20379;-75
2023/03/31 04:34:49;;;;;;;15.52;6.57;;;9.70;99.90;;;;;;5066054;28;20076;-75
2023/03/31 04:37:16;;;;;;;11.15;5.45;;;9.70;99.90;;;;;;5070227;28;20048;-75
2023/03/31 04:39:45;;;;;;;11.07;6.22;;;9.70;99.90;;;;;;5069579;28;20056;-75
2023/03/31 04:42:11;;;;;;;15.85;6.32;;;9.80;99.90;;;;;;5063885;28;20084;-75
2023/03/31 04:44:37;;;;;;;10.95;5.63;;;9.70;99.90;;;;;;5065820;28;20505;-75
2023/03/31 04:47:05;;;;;;;11.52;6.15;;;9.70;99.90;;;;;;5070164;28;20040;-75
2023/03/31 04:49:32;;;;;;;15.85;6.80;;;9.70;99.90;;;;;;5065291;28;20439;-76
2023/03/31 04:51:59;;;;;;;15.52;6.63;;;9.60;99.90;;;;;;5061771;28;20679;-75
2023/03/31 04:54:24;;;;;;;17.45;7.43;;;9.70;99.90;;;;;;5065330;28;20040;-75
2023/03/31 04:56:50;;;;;;;16.90;6.35;;;9.70;99.90;;;;;;5064479;28;20050;-75
2023/03/31 04:59:16;;;;;;;18.70;7.65;;;9.70;99.90;;;;;;5068268;28;20105;-75
2023/03/31 05:01:43;;;;;;;17.77;6.70;;;9.70;99.90;;;;;;5072136;28;20661;-75
2023/03/31 05:04:09;;;;;;;12.48;7.03;;;9.70;99.90;;;;;;5063579;28;20513;-75
2023/03/31 05:06:35;;;;;;;14.98;7.25;;;9.70;99.90;;;;;;5063195;28;20049;-75
2023/03/31 05:09:01;;;;;;;16.98;7.63;;;9.70;99.90;;;;;;5069004;28;20063;-75
2023/03/31 05:11:27;;;;;;;22.35;8.38;;;9.70;99.90;;;;;;5045089;28;20512;-75
2023/03/31 05:13:53;;;;;;;21.35;7.75;;;9.70;99.90;;;;;;5063627;28;20045;-75
2023/03/31 05:16:19;;;;;;;18.20;8.52;;;9.70;99.90;;;;;;5066147;28;20059;-75
2023/03/31 05:18:45;;;;;;;18.48;7.72;;;9.70;99.90;;;;;;5069640;28;20051;-75
2023/03/31 05:21:12;;;;;;;10.43;7.10;;;9.80;99.90;;;;;;5069456;28;20059;-75
2023/03/31 05:23:38;;;;;;;13.60;6.82;;;9.80;99.90;;;;;;5070440;28;20059;-75
2023/03/31 05:26:04;;;;;;;11.68;6.05;;;9.80;99.90;;;;;;5069319;28;20401;-75
2023/03/31 05:28:30;;;;;;;13.27;7.28;;;9.80;99.90;;;;;;5063913;28;20417;-75
2023/03/31 05:31:01;;;;;;;13.80;6.43;;;9.80;99.90;;;;;;5065469;28;20040;-75
2023/03/31 05:33:27;;;;;;;15.52;7.78;;;9.80;99.90;;;;;;5067119;28;20121;-75
2023/03/31 05:35:53;;;;;;;17.08;6.53;;;9.80;99.90;;;;;;5069091;28;20065;-75
2023/03/31 05:38:20;;;;;;;19.77;7.22;;;9.90;99.90;;;;;;5069709;28;20210;-75
2023/03/31 05:40:46;;;;;;;19.77;8.82;;;9.80;99.90;;;;;;5060678;28;20048;-75
2023/03/31 05:43:11;;;;;;;14.23;6.43;;;9.80;99.90;;;;;;5063389;28;20059;-75
2023/03/31 05:45:37;;;;;;;18.08;8.30;;;9.70;99.90;;;;;;5060730;28;20048;-75
2023/03/31 05:48:03;;;;;;;11.75;6.63;;;9.80;99.90;;;;;;5066082;28;20064;-75
2023/03/31 05:50:29;;;;;;;16.50;6.65;;;9.80;99.90;;;;;;5056995;28;20423;-75
2023/03/31 05:52:54;;;;;;;12.98;7.03;;;9.80;99.90;;;;;;5061652;28;20044;-75
2023/03/31 05:55:20;;;;;;;15.30;8.30;;;9.80;99.90;;;;;;5065647;28;20036;-75
2023/03/31 05:57:45;;;;;;;19.98;8.20;;;9.80;99.90;;;;;;5069451;28;20444;-75
2023/03/31 06:00:12;;;;;;;14.18;7.47;;;9.80;99.90;;;;;;5056504;28;20048;-75
2023/03/31 06:02:41;;;;;;;16.80;8.05;;;9.90;99.90;;;;;;5070114;28;20417;-75
2023/03/31 06:05:07;;;;;;;25.63;7.18;;;9.80;99.90;;;;;;5048500;28;20046;-75
2023/03/31 06:07:33;;;;;;;18.77;7.63;;;9.80;99.90;;;;;;5065964;28;20109;-74
2023/03/31 06:09:58;;;;;;;12.73;6.85;;;9.80;99.90;;;;;;5066742;28;20052;-75
2023/03/31 06:12:24;;;;;;;12.07;7.10;;;9.80;99.90;;;;;;5068173;28;20044;-75
2023/03/31 06:14:49;;;;;;;14.00;5.75;;;9.90;99.90;;;;;;5068016;28;20092;-75
2023/03/31 06:17:16;;;;;;;13.63;6.53;;;9.80;99.90;;;;;;5068028;28;20036;-75
2023/03/31 06:19:45;;;;;;;12.85;6.15;;;9.90;99.90;;;;;;5067272;28;20113;-75
2023/03/31 06:22:11;;;;;;;13.27;6.05;;;9.90;99.90;;;;;;5061999;28;20405;-75
2023/03/31 06:24:37;;;;;;;14.30;7.15;;;9.90;99.90;;;;;;5065111;28;20044;-75
2023/03/31 06:27:04;;;;;;;13.50;6.75;;;9.80;99.90;;;;;;5067315;28;20494;-75
2023/03/31 06:29:30;;;;;;;10.70;7.28;;;9.90;99.90;;;;;;5060181;28;20051;-75
2023/03/31 06:31:56;;;;;;;17.80;9.90;;;9.90;99.90;;;;;;5064700;28;20032;-75
2023/03/31 06:34:21;;;;;;;11.40;7.68;;;9.90;99.90;;;;;;5058667;28;20164;-75
2023/03/31 06:36:47;;;;;;;20.00;8.73;;;9.90;99.90;;;;;;5063725;28;20505;-75
2023/03/31 06:39:13;;;;;;;19.58;9.57;;;9.90;99.90;;;;;;5067581;28;20094;-75
2023/03/31 06:41:38;;;;;;;22.05;8.88;;;9.90;99.90;;;;;;5065894;28;20049;-75
2023/03/31 06:44:04;;;;;;;18.30;7.05;;;9.80;99.90;;;;;;5060848;28;20059;-75
2023/03/31 06:46:31;;;;;;;15.27;7.53;;;9.90;99.90;;;;;;5067715;28;20405;-75
2023/03/31 06:48:57;;;;;;;14.02;7.68;;;9.90;99.90;;;;;;5065300;28;20047;-75
2023/03/31 06:51:25;;;;;;;17.52;7.88;;;9.90;99.90;;;;;;5031819;28;20048;-75
2023/03/31 06:53:50;;;;;;;19.38;6.88;;;9.90;99.90;;;;;;5059266;28;20459;-75
2023/03/31 06:56:16;;;;;;;13.35;8.88;;;9.90;99.90;;;;;;5065273;28;20485;-75
2023/03/31 06:58:41;;;;;;;16.45;10.30;;;9.90;99.90;;;;;;5062514;28;20056;-75
2023/03/31 07:01:07;;;;;;;18.25;10.50;;;10.00;99.90;;;;;;5051356;28;20383;-75
2023/03/31 07:03:33;;;;;;;13.20;9.18;;;9.90;99.90;;;;;;5067471;28;20040;-75
2023/03/31 07:05:59;;;;;;;13.88;8.43;;;10.00;99.90;;;;;;5067274;28;20052;-75
2023/03/31 07:08:25;;;;;;;17.15;8.02;;;10.00;99.90;;;;;;5067013;28;20268;-75
2023/03/31 07:10:59;;;;;;;9.52;6.30;;;10.00;99.90;;;;;;5058927;28;20049;-75
2023/03/31 07:13:27;;;;;;;9.50;6.70;;;9.90;99.90;;;;;;5064327;28;20044;-74
2023/03/31 07:15:52;;;;;;;12.70;7.47;;;10.00;99.90;;;;;;5054630;28;20074;-75
2023/03/31 07:18:24;;;;;;;11.32;7.60;;;9.90;99.90;;;;;;5066539;28;20334;-75
2023/03/31 07:20:51;;;;;;;16.70;7.72;;;9.90;99.90;;;;;;5065789;28;20045;-75
2023/03/31 07:23:17;;;;;;;9.77;6.10;;;9.90;99.90;;;;;;5056739;28;20048;-75
2023/03/31 07:25:42;;;;;;;10.20;6.25;;;9.90;99.90;;;;;;5063834;28;20076;-75
2023/03/31 07:28:08;;;;;;;14.48;6.72;;;9.90;99.90;;;;;;5063043;28;20095;-75
2023/03/31 07:30:34;;;;;;;18.20;8.38;;;9.90;99.90;;;;;;5062783;28;20041;-75
2023/03/31 07:33:00;;;;;;;8.98;6.57;;;9.90;99.90;;;;;;5066489;28;20044;-75
2023/03/31 07:35:26;;;;;;;8.70;6.68;;;10.00;99.90;;;;;;5066419;28;20070;-75
2023/03/31 07:37:52;;;;;;;11.82;6.90;;;10.00;99.90;;;;;;5057687;28;20045;-75
2023/03/31 07:40:24;;;;;;;8.77;6.38;;;10.00;99.90;;;;;;5062984;28;20049;-75
2023/03/31 07:42:51;;;;;;;9.82;7.13;;;10.00;99.90;;;;;;5059620;28;20131;-75
2023/03/31 07:45:18;;;;;;;11.40;6.32;;;10.00;99.90;;;;;;5055431;28;20048;-76
2023/03/31 07:47:45;;;;;;;14.73;7.13;;;10.10;99.90;;;;;;5061824;28;20620;-76
2023/03/31 07:50:11;;;;;;;16.50;7.75;;;10.10;99.90;;;;;;5063118;28;20044;-75
2023/03/31 07:52:38;;;;;;;20.45;7.35;;;10.00;99.90;;;;;;5060144;28;20079;-75
2023/03/31 07:55:05;;;;;;;12.35;8.65;;;10.00;99.90;;;;;;5058270;28;20048;-75
2023/03/31 07:57:31;;;;;;;19.45;7.85;;;10.10;99.90;;;;;;5053407;28;20049;-75
2023/03/31 07:59:56;;;;;;;18.88;8.18;;;10.10;99.90;;;;;;5066727;28;20091;-75
2023/03/31 08:02:22;;;;;;;11.68;6.85;;;10.10;99.90;;;;;;5053254;28;20057;-75
2023/03/31 08:04:48;;;;;;;18.48;9.13;;;10.10;99.90;;;;;;5066071;28;20048;-75
2023/03/31 08:07:15;;;;;;;16.75;8.43;;;10.20;99.90;;;;;;5059982;28;20079;-75
2023/03/31 08:09:43;;;;;;;14.98;7.00;;;10.20;99.90;;;;;;5064690;28;20607;-75
2023/03/31 08:12:09;;;;;;;;;;;10.20;99.90;;;;;;5064969;28;20497;-76
2023/03/31 08:14:35;;;;;;;14.88;8.05;;;10.20;99.90;;;;;;5058565;28;19977;-75
2023/03/31 08:17:02;;;;;;;12.75;7.95;;;10.30;99.90;;;;;;5061961;28;20060;-76
2023/03/31 08:19:28;;;;;;;9.05;7.32;;;10.30;99.90;;;;;;5059199;28;20746;-75
2023/03/31 08:21:54;;;;;;;9.75;7.03;;;10.30;99.90;;;;;;5065001;28;20080;-75
2023/03/31 08:24:20;;;;;;;11.10;7.05;;;10.40;99.90;;;;;;5066397;28;20123;-75
2023/03/31 08:26:46;;;;;;;20.13;8.05;;;10.40;99.90;;;;;;5056630;28;20041;-75
2023/03/31 08:29:12;;;;;;;12.77;7.45;;;10.40;99.90;;;;;;5065377;28;20060;-75
2023/03/31 08:31:38;;;;;;;12.27;6.82;;;10.40;99.90;;;;;;5067853;28;20087;-75
2023/03/31 08:34:04;;;;;;;14.55;6.85;;;10.50;99.90;;;;;;5065023;28;20080;-75
2023/03/31 08:36:30;;;;;;;14.45;7.50;;;10.50;99.90;;;;;;5054099;28;20166;-75
2023/03/31 08:38:56;;;;;;;7.80;5.90;;;10.50;99.90;;;;;;5066437;28;20048;-75
2023/03/31 08:41:44;;;;;;;17.30;6.30;;;10.50;99.90;;;;;;5062517;28;20052;-75
2023/03/31 08:44:25;;;;;;;22.42;8.07;;;10.50;99.90;;;;;;5059846;28;20520;-75
2023/03/31 08:46:53;;;;;;;13.48;6.65;;;10.60;99.90;;;;;;5062757;28;20052;-75
2023/03/31 08:49:21;;;;;;;14.40;6.85;;;10.60;99.90;;;;;;5052120;28;20045;-75
2023/03/31 08:51:56;;;;;;;11.27;6.43;;;10.60;99.90;;;;;;5060074;28;20045;-75
2023/03/31 08:54:45;;;;;;;18.60;6.90;;;10.60;99.90;;;;;;5065774;28;20052;-75
2023/03/31 08:57:22;;;;;;;12.77;7.75;;;10.60;99.90;;;;;;5066233;28;20048;-75
2023/03/31 08:59:49;;;;;;;14.32;6.65;;;10.60;99.90;;;;;;5058383;28;20049;-75
2023/03/31 09:02:39;;;;;;;18.13;7.80;;;10.60;99.90;;;;;;5064757;28;20056;-75
2023/03/31 09:05:45;;;;;;;11.40;6.68;;;10.60;99.90;;;;;;5061036;28;20429;-75
2023/03/31 09:08:11;;;;;;;9.57;5.85;;;10.60;99.90;;;;;;5061502;28;20048;-75
2023/03/31 09:10:40;;;;;;;10.77;5.38;;;10.70;99.90;;;;;;5065919;28;20060;-75
2023/03/31 09:13:39;;;;;;;18.10;7.10;;;10.70;99.90;;;;;;5063860;28;20051;-75
2023/03/31 09:16:18;;;;;;;24.55;10.40;;;10.80;99.90;;;;;;5059256;28;20072;-75
2023/03/31 09:18:47;;;;;;;29.42;10.57;;;10.80;99.90;;;;;;5060636;28;20071;-75
2023/03/31 09:21:24;;;;;;;20.83;11.10;;;10.80;99.90;;;;;;5066902;28;20090;-75
2023/03/31 09:24:03;;;;;;;12.63;7.17;;;10.90;99.90;;;;;;5061462;28;20051;-75
2023/03/31 09:26:51;;;;;;;9.20;6.57;;;11.00;99.90;;;;;;5061659;28;20111;-75
2023/03/31 09:29:51;;;;;;;13.93;6.23;;;11.00;99.90;;;;;;5069342;28;20509;-74
2023/03/31 09:32:23;;;;;;;14.05;6.30;;;11.10;99.90;;;;;;5068109;28;20286;-75
2023/03/31 09:34:56;;;;;;;18.17;7.38;;;11.10;99.90;;;;;;5060247;28;20056;-75
2023/03/31 09:37:26;;;;;;;17.30;7.00;;;11.10;99.90;;;;;;5070288;28;20056;-75
2023/03/31 09:39:51;;;;;;;8.65;5.75;;;11.10;99.90;;;;;;5057665;28;20053;-75
2023/03/31 09:42:18;;;;;;;14.93;5.68;;;11.20;99.90;;;;;;5067994;28;20098;-75
2023/03/31 09:44:46;;;;;;;8.65;4.78;;;11.20;99.90;;;;;;5068888;28;20056;-75
2023/03/31 09:47:37;;;;;;;15.20;4.13;;;11.20;99.90;;;;;;5065284;28;20093;-75
2023/03/31 09:50:08;;;;;;;10.93;4.10;;;11.20;99.90;;;;;;5054763;28;20072;-75
2023/03/31 09:52:41;;;;;;;9.15;4.53;;;11.20;99.90;;;;;;5059994;28;20053;-75
2023/03/31 09:55:49;;;;;;;7.25;3.67;;;11.20;99.90;;;;;;5063364;28;20055;-75
2023/03/31 09:58:16;;;;;;;6.55;3.60;;;11.20;99.90;;;;;;5046124;28;20055;-75
2023/03/31 10:01:03;;;;;;;6.53;3.40;;;11.20;99.90;;;;;;5066223;28;20080;-76
2023/03/31 10:03:35;;;;;;;7.03;3.50;;;11.30;99.90;;;;;;5059043;28;20048;-75
2023/03/31 10:06:08;;;;;;;10.18;4.60;;;11.30;99.90;;;;;;5064439;28;20383;-75
2023/03/31 10:08:46;;;;;;;4.93;2.90;;;11.40;99.90;;;;;;5063477;28;20045;-75
2023/03/31 10:11:12;;;;;;;6.35;3.67;;;11.40;99.90;;;;;;5059014;28;20087;-74
2023/03/31 10:13:49;;;;;;;6.45;3.10;;;11.40;99.90;;;;;;5058469;28;20092;-75
2023/03/31 10:16:28;;;;;;;7.40;3.97;;;11.50;99.90;;;;;;5069236;28;20132;-75
2023/03/31 10:18:56;;;;;;;9.93;3.90;;;11.50;99.90;;;;;;5046585;28;20036;-75
2023/03/31 10:21:24;;;;;;;6.13;3.78;;;11.50;99.90;;;;;;5057169;28;20475;-75
2023/03/31 10:23:51;;;;;;;5.15;3.35;;;11.60;99.90;;;;;;5067944;28;20055;-75
2023/03/31 10:26:21;;;;;;;4.57;3.03;;;11.60;99.90;;;;;;5067788;28;20043;-76
2023/03/31 10:28:51;;;;;;;11.13;3.28;;;11.70;99.90;;;;;;5054616;28;20049;-75
2023/03/31 10:31:18;;;;;;;13.18;4.13;;;11.70;99.90;;;;;;5051742;28;20041;-75
2023/03/31 10:33:47;;;;;;;6.93;4.07;;;11.80;99.90;;;;;;5061759;28;20067;-76
2023/03/31 10:36:26;;;;;;;6.72;3.15;;;11.80;99.90;;;;;;5068417;28;20071;-75
2023/03/31 10:38:52;;;;;;;6.22;4.15;;;11.90;99.90;;;;;;5049450;28;20041;-75
2023/03/31 10:41:29;;;;;;;8.10;4.60;;;12.00;99.90;;;;;;5062858;28;20093;-75
2023/03/31 10:43:57;;;;;;;8.50;4.28;;;12.00;99.90;;;;;;5062533;28;20048;-75
2023/03/31 10:46:48;;;;;;;4.57;3.58;;;12.10;99.90;;;;;;5063095;28;20054;-74
2023/03/31 10:49:21;;;;;;;7.03;4.05;;;12.20;99.90;;;;;;5068090;28;20046;-75
2023/03/31 10:51:55;;;;;;;5.38;3.28;;;12.20;99.90;;;;;;5064695;28;20040;-75
2023/03/31 10:54:20;;;;;;;6.00;3.38;;;12.30;99.90;;;;;;5064517;28;20075;-75
2023/03/31 10:57:05;;;;;;;4.25;3.40;;;12.40;99.90;;;;;;5058547;28;20118;-74
2023/03/31 11:00:18;;;;;;;7.22;3.95;;;12.40;99.90;;;;;;5063482;28;20041;-75
2023/03/31 11:03:13;;;;;;;9.60;3.95;;;12.40;99.90;;;;;;5066106;28;20037;-74
2023/03/31 11:05:46;;;;;;;6.95;3.67;;;12.50;99.90;;;;;;5067882;28;20450;-74
2023/03/31 11:08:31;;;;;;;11.05;3.83;;;12.50;99.90;;;;;;5067568;28;20502;-74
2023/03/31 11:11:24;;;;;;;5.38;3.40;;;12.60;99.90;;;;;;5062370;28;20052;-75
2023/03/31 11:13:52;;;;;;;9.55;3.80;;;12.50;99.90;;;;;;5057843;28;20049;-75
2023/03/31 11:16:18;;;;;;;;;;;12.50;99.90;;;;;;5058928;28;20052;-75
2023/03/31 11:19:15;;;;;;;7.30;3.97;;;12.50;99.90;;;;;;5061145;28;19924;-75
2023/03/31 11:22:08;;;;;;;7.45;3.22;;;12.40;99.90;;;;;;5060852;28;20049;-74
2023/03/31 11:24:57;;;;;;;5.10;3.28;;;12.40;99.90;;;;;;5048474;28;20053;-75
2023/03/31 11:27:54;;;;;;;6.22;3.42;;;12.30;99.90;;;;;;5057272;28;20048;-75
2023/03/31 11:30:29;;;;;;;6.55;3.35;;;12.30;99.90;;;;;;5066067;28;20041;-75
2023/03/31 11:33:26;;;;;;;6.43;3.67;;;12.30;99.90;;;;;;5067614;28;20071;-74
2023/03/31 11:36:29;;;;;;;9.88;4.00;;;12.30;99.90;;;;;;5057557;28;20269;-75
2023/03/31 11:39:17;;;;;;;6.78;3.35;;;12.50;99.90;;;;;;5062629;28;20057;-74
2023/03/31 11:41:58;;;;;;;5.20;4.13;;;12.50;99.90;;;;;;5059832;28;20106;-74
2023/03/31 11:44:26;;;;;;;4.80;3.30;;;12.60;99.90;;;;;;5058760;28;20872;-74
2023/03/31 11:47:00;;;;;;;6.05;3.85;;;12.70;99.90;;;;;;5063715;28;20178;-74
2023/03/31 11:49:31;;;;;;;5.57;3.83;;;12.80;99.90;;;;;;5065464;28;20044;-74
2023/03/31 11:52:01;;;;;;;4.57;3.88;;;12.90;99.90;;;;;;5054115;28;20049;-74
2023/03/31 11:54:27;;;;;;;7.65;3.90;;;13.00;99.90;;;;;;5058753;28;20062;-74
2023/03/31 11:56:55;;;;;;;6.78;3.60;;;13.00;99.90;;;;;;5066949;28;20044;-74
2023/03/31 11:59:22;;;;;;;6.45;3.83;;;13.10;99.90;;;;;;5064902;28;20048;-74
2023/03/31 12:02:00;;;;;;;4.75;4.20;;;13.10;99.90;;;;;;5066304;28;20048;-75
2023/03/31 12:04:42;;;;;;;8.77;4.45;;;13.10;99.90;;;;;;5061208;28;20056;-75
2023/03/31 12:07:35;;;;;;;12.02;4.97;;;13.10;99.90;;;;;;5066645;28;20079;-75
2023/03/31 12:10:30;;;;;;;5.43;3.58;;;13.20;99.90;;;;;;5067366;28;20071;-75
2023/03/31 12:13:17;;;;;;;9.80;5.50;;;13.30;99.90;;;;;;5060867;28;20064;-75
2023/03/31 12:15:51;;;;;;;9.40;5.40;;;13.30;99.90;;;;;;5055806;28;20052;-75
2023/03/31 12:18:19;;;;;;;9.88;5.93;;;13.40;99.90;;;;;;5044855;28;20045;-74
2023/03/31 12:20:50;;;;;;;13.40;4.70;;;13.40;99.90;;;;;;5046400;28;20623;-75
2023/03/31 12:23:25;;;;;;;16.25;7.25;;;13.60;99.90;;;;;;5065335;28;20527;-75
2023/03/31 12:26:03;;;;;;;9.05;4.82;;;13.60;99.90;;;;;;5065987;28;20049;-74
2023/03/31 12:28:31;;;;;;;9.73;4.72;;;13.60;99.90;;;;;;5060816;28;20094;-74
2023/03/31 12:31:01;;;;;;;10.32;5.45;;;13.60;99.90;;;;;;5064612;28;20498;-74
2023/03/31 12:33:31;;;;;;;10.25;5.00;;;13.60;99.90;;;;;;5065262;28;20072;-74
2023/03/31 12:36:07;;;;;;;17.88;5.88;;;13.50;99.90;;;;;;5061023;28;20041;-74
2023/03/31 12:39:01;;;;;;;7.32;5.07;;;13.60;99.90;;;;;;5064405;28;20061;-75
2023/03/31 12:41:52;;;;;;;10.85;4.90;;;13.50;99.90;;;;;;5061619;28;20532;-74
2023/03/31 12:44:43;;;;;;;9.65;4.72;;;13.40;99.90;;;;;;5065343;28;20542;-74
2023/03/31 12:47:44;;;;;;;11.02;4.85;;;13.30;99.90;;;;;;5062325;28;20076;-75
2023/03/31 12:50:26;;;;;;;16.35;5.03;;;13.30;99.90;;;;;;5055556;28;20846;-75
2023/03/31 12:52:58;;;;;;;18.83;5.40;;;13.30;99.90;;;;;;5063143;28;20089;-75
2023/03/31 12:55:29;;;;;;;11.05;5.45;;;13.50;99.90;;;;;;5058281;28;20053;-75
2023/03/31 12:58:23;;;;;;;10.93;4.28;;;13.80;99.90;;;;;;5067238;28;20052;-75
2023/03/31 13:01:20;;;;;;;12.15;4.63;;;14.10;99.90;;;;;;5061274;28;20828;-75
2023/03/31 13:03:47;;;;;;;9.55;5.28;;;14.30;99.90;;;;;;5066380;28;20083;-74
2023/03/31 13:06:28;;;;;;;10.93;4.50;;;14.40;99.90;;;;;;5066181;28;20121;-75
2023/03/31 13:09:07;;;;;;;8.85;5.40;;;14.30;99.90;;;;;;5053087;28;20040;-75
2023/03/31 13:11:33;;;;;;;9.55;5.35;;;14.20;99.90;;;;;;5067224;28;20044;-75
2023/03/31 13:14:20;;;;;;;13.02;6.10;;;14.00;99.90;;;;;;5059482;28;20055;-74